createdAt,value
2022-12-01T00:01:36.541Z,100796.63
2022-12-01T00:04:06.240Z,100805.72
2022-12-01T00:06:33.802Z,100792.91
2022-12-01T00:09:20.265Z,100798.63
2022-12-01T00:11:49.745Z,100804.34
2022-12-01T00:14:17.420Z,100799.53
2022-12-01T00:16:45.538Z,100800.25
2022-12-01T00:19:13.179Z,100808.69
2022-12-01T00:21:40.821Z,100803.47
2022-12-01T00:24:08.772Z,100809.78
2022-12-01T00:26:40.822Z,100809.72
2022-12-01T00:29:08.545Z,100800.44
2022-12-01T00:31:38.845Z,100809.22
2022-12-01T00:34:11.146Z,100809.78
2022-12-01T00:36:39.371Z,100811.84
2022-12-01T00:39:09.488Z,100814.72
2022-12-01T00:41:39.520Z,100813.91
2022-12-01T00:44:07.054Z,100817.63
2022-12-01T00:46:34.825Z,100821.16
2022-12-01T00:49:06.844Z,100815.81
2022-12-01T00:51:35.428Z,100808.84
2022-12-01T00:54:05.320Z,100827.91
2022-12-01T00:56:32.927Z,100824.72
2022-12-01T00:59:05.060Z,100830.41
2022-12-01T01:01:37.345Z,100833.59
2022-12-01T01:04:05.173Z,100827.56
2022-12-01T01:06:32.903Z,100829.59
2022-12-01T01:09:02.829Z,100820.41
2022-12-01T01:11:30.386Z,100814.91
2022-12-01T01:14:00.009Z,100818.41
2022-12-01T01:16:30.383Z,100816.91
2022-12-01T01:18:58.584Z,100814.56
2022-12-01T01:21:29.096Z,100817.75
2022-12-01T01:23:56.676Z,100814.56
2022-12-01T01:26:27.216Z,100813.09
2022-12-01T01:28:58.284Z,100814.56
2022-12-01T01:31:27.517Z,100806.56
2022-12-01T01:33:57.084Z,100811.88
2022-12-01T01:36:27.603Z,100815.88
2022-12-01T01:38:57.816Z,100816.75
2022-12-01T01:41:25.763Z,100821.56
2022-12-01T01:44:01.875Z,100816.53
2022-12-01T01:46:35.095Z,100814.19
2022-12-01T01:49:09.208Z,100808.34
2022-12-01T01:51:52.603Z,100819.91
2022-12-01T01:54:24.935Z,100815.75
2022-12-01T01:56:54.052Z,100804.91
2022-12-01T01:59:25.369Z,100812.59
2022-12-01T02:02:01.277Z,100810.22
2022-12-01T02:04:30.405Z,100813.25
2022-12-01T02:06:58.029Z,100793.37
2022-12-01T02:09:27.828Z,100811.22
2022-12-01T02:12:23.276Z,100804.88
2022-12-01T02:14:56.633Z,100806.87
2022-12-01T02:17:45.745Z,100805.00
2022-12-01T02:20:50.621Z,100804.16
2022-12-01T02:23:45.597Z,100811.00
2022-12-01T02:26:15.824Z,100812.16
2022-12-01T02:29:18.455Z,100807.16
2022-12-01T02:32:12.475Z,100801.31
2022-12-01T02:34:54.986Z,100809.78
2022-12-01T02:37:45.114Z,100806.09
2022-12-01T02:40:25.797Z,100803.41
2022-12-01T02:43:10.179Z,100795.41
2022-12-01T02:45:49.598Z,100796.63
2022-12-01T02:48:30.693Z,100788.81
2022-12-01T02:51:04.164Z,100791.66
2022-12-01T02:53:31.804Z,100789.81
2022-12-01T02:56:00.336Z,100791.19
2022-12-01T02:58:27.842Z,100781.19
2022-12-01T03:01:18.110Z,100794.53
2022-12-01T03:04:03.939Z,100789.34
2022-12-01T03:06:44.166Z,100792.34
2022-12-01T03:09:56.288Z,100795.88
2022-12-01T03:12:38.991Z,100796.91
2022-12-01T03:15:15.349Z,100806.87
2022-12-01T03:18:03.168Z,100797.19
2022-12-01T03:20:43.804Z,100798.88
2022-12-01T03:23:20.956Z,100790.72
2022-12-01T03:25:54.080Z,100792.53
2022-12-01T03:28:29.983Z,100785.19
2022-12-01T03:31:01.970Z,100792.38
2022-12-01T03:33:44.763Z,100781.03
2022-12-01T03:36:32.800Z,100783.88
2022-12-01T03:39:05.923Z,100776.69
2022-12-01T03:41:39.552Z,100771.50
2022-12-01T03:44:17.704Z,100775.53
2022-12-01T03:46:58.197Z,100748.81
2022-12-01T03:49:29.102Z,100768.13
2022-12-01T03:51:59.670Z,100771.28
2022-12-01T03:54:45.351Z,100768.91
2022-12-01T03:57:19.836Z,100769.06
2022-12-01T03:59:49.248Z,100770.72
2022-12-01T04:02:18.170Z,100774.22
2022-12-01T04:04:45.671Z,100774.75
2022-12-01T04:07:17.613Z,100776.06
2022-12-01T04:09:45.226Z,100771.59
2022-12-01T04:12:29.210Z,100770.09
2022-12-01T04:15:12.516Z,100771.09
2022-12-01T04:17:45.463Z,100759.75
2022-12-01T04:20:18.677Z,100755.72
2022-12-01T04:22:48.894Z,100750.03
2022-12-01T04:25:16.863Z,100752.31
2022-12-01T04:27:44.381Z,100756.94
2022-12-01T04:30:12.504Z,100761.28
2022-12-01T04:32:41.802Z,100767.44
2022-12-01T04:35:14.887Z,100770.81
2022-12-01T04:37:42.476Z,100775.84
2022-12-01T04:40:13.459Z,100774.50
2022-12-01T04:42:43.347Z,100776.34
2022-12-01T04:45:11.586Z,100785.31
2022-12-01T04:47:39.118Z,100792.87
2022-12-01T04:50:09.756Z,100791.38
2022-12-01T04:52:38.538Z,100799.41
2022-12-01T04:55:09.279Z,100793.75
2022-12-01T04:57:41.441Z,100784.06
2022-12-01T05:00:13.408Z,100786.75
2022-12-01T05:02:43.644Z,100795.47
2022-12-01T05:05:12.395Z,100797.66
2022-12-01T05:07:40.255Z,100799.31
2022-12-01T05:10:09.505Z,100789.84
2022-12-01T05:12:42.124Z,100796.34
2022-12-01T05:15:09.968Z,100789.69
2022-12-01T05:17:37.525Z,100784.72
2022-12-01T05:20:26.715Z,100787.69
2022-12-01T05:23:09.739Z,100786.88
2022-12-01T05:25:39.830Z,100787.53
2022-12-01T05:28:09.954Z,100778.00
2022-12-01T05:30:37.514Z,100794.03
2022-12-01T05:33:05.058Z,100788.03
2022-12-01T05:35:34.629Z,100790.53
2022-12-01T05:38:07.528Z,100775.47
2022-12-01T05:40:37.758Z,100786.31
2022-12-01T05:43:05.683Z,100788.66
2022-12-01T05:45:33.861Z,100785.16
2022-12-01T05:48:02.958Z,100791.81
2022-12-01T05:50:31.467Z,100787.62
2022-12-01T05:52:59.067Z,100787.59
2022-12-01T05:55:28.822Z,100786.59
2022-12-01T05:57:56.376Z,100788.75
2022-12-01T06:00:23.962Z,100792.06
2022-12-01T06:02:51.537Z,100797.72
2022-12-01T06:05:21.548Z,100791.00
2022-12-01T06:07:49.391Z,100804.34
2022-12-01T06:10:17.634Z,100803.16
2022-12-01T06:12:45.733Z,100807.97
2022-12-01T06:15:14.119Z,100808.81
2022-12-01T06:17:42.258Z,100807.47
2022-12-01T06:20:13.708Z,100816.47
2022-12-01T06:22:44.235Z,100815.47
2022-12-01T06:25:14.195Z,100815.66
2022-12-01T06:27:41.780Z,100824.31
2022-12-01T06:30:09.974Z,100821.00
2022-12-01T06:32:37.794Z,100824.84
2022-12-01T06:35:05.623Z,100822.84
2022-12-01T06:37:33.536Z,100823.56
2022-12-01T06:40:01.119Z,100775.66
2022-12-01T06:42:31.620Z,100819.41
2022-12-01T06:44:59.230Z,100816.25
2022-12-01T06:47:26.797Z,100803.28
2022-12-01T06:49:55.323Z,100813.16
2022-12-01T06:52:24.259Z,100803.66
2022-12-01T06:54:51.884Z,100806.84
2022-12-01T06:57:19.845Z,100802.34
2022-12-01T06:59:48.064Z,100809.22
2022-12-01T07:02:16.998Z,100809.22
2022-12-01T07:04:44.634Z,100811.88
2022-12-01T07:07:12.339Z,100815.38
2022-12-01T07:09:40.709Z,100818.59
2022-12-01T07:12:08.646Z,100813.25
2022-12-01T07:14:36.681Z,100817.91
2022-12-01T07:17:06.869Z,100815.41
2022-12-01T07:19:34.495Z,100814.09
2022-12-01T07:22:02.109Z,100815.88
2022-12-01T07:24:30.826Z,100815.47
2022-12-01T07:26:58.390Z,100818.25
2022-12-01T07:29:28.454Z,100828.47
2022-12-01T07:31:58.111Z,100817.16
2022-12-01T07:34:25.989Z,100828.09
2022-12-01T07:36:53.659Z,100822.66
2022-12-01T07:39:21.409Z,100820.31
2022-12-01T07:41:49.011Z,100829.25
2022-12-01T07:44:16.542Z,100820.16
2022-12-01T07:46:44.169Z,100825.41
2022-12-01T07:49:15.020Z,100818.25
2022-12-01T07:51:47.192Z,100825.25
2022-12-01T07:54:17.657Z,100816.37
2022-12-01T07:56:46.623Z,100820.75
2022-12-01T07:59:16.117Z,100819.50
2022-12-01T08:01:44.850Z,100829.38
2022-12-01T08:04:13.155Z,100824.41
2022-12-01T08:06:43.140Z,100825.22
2022-12-01T08:09:10.679Z,100824.69
2022-12-01T08:11:38.308Z,100823.66
2022-12-01T08:14:07.433Z,100828.78
2022-12-01T08:16:35.260Z,100824.41
2022-12-01T08:19:02.809Z,100829.22
2022-12-01T08:21:37.455Z,100822.47
2022-12-01T08:24:07.153Z,100820.28
2022-12-01T08:26:34.913Z,100817.81
2022-12-01T08:29:02.781Z,100810.37
2022-12-01T08:31:33.476Z,100810.66
2022-12-01T08:34:01.015Z,100816.78
2022-12-01T08:36:28.741Z,100817.00
2022-12-01T08:38:56.846Z,100824.81
2022-12-01T08:41:25.326Z,100824.09
2022-12-01T08:43:58.331Z,100827.44
2022-12-01T08:46:34.309Z,100826.41
2022-12-01T08:49:04.094Z,100835.00
2022-12-01T08:51:36.355Z,100827.81
2022-12-01T08:54:05.552Z,100827.81
2022-12-01T08:56:37.095Z,100821.56
2022-12-01T08:59:05.455Z,100821.75
2022-12-01T09:01:33.928Z,100822.75
2022-12-01T09:04:08.475Z,100832.16
2022-12-01T09:06:42.821Z,100828.84
2022-12-01T09:09:12.443Z,100835.84
2022-12-01T09:11:40.533Z,100832.28
2022-12-01T09:14:08.102Z,100834.19
2022-12-01T09:16:35.716Z,100830.63
2022-12-01T09:19:05.108Z,100828.75
2022-12-01T09:21:33.844Z,100820.47
2022-12-01T09:24:03.347Z,100817.88
2022-12-01T09:26:35.057Z,100822.25
2022-12-01T09:29:08.650Z,100812.91
2022-12-01T09:31:37.211Z,100815.97
2022-12-01T09:34:08.437Z,100809.47
2022-12-01T09:36:37.338Z,100811.19
2022-12-01T09:39:06.559Z,100803.69
2022-12-01T09:41:53.091Z,100804.28
2022-12-01T09:44:26.479Z,100807.44
2022-12-01T09:47:08.070Z,100807.69
2022-12-01T09:49:55.388Z,100809.31
2022-12-01T09:52:30.278Z,100804.88
2022-12-01T09:55:00.294Z,100806.87
2022-12-01T09:57:41.801Z,100806.06
2022-12-01T10:00:22.498Z,100811.56
2022-12-01T10:02:54.707Z,100802.81
2022-12-01T10:05:25.895Z,100799.84
2022-12-01T10:08:05.237Z,100792.00
2022-12-01T10:10:38.929Z,100795.12
2022-12-01T10:13:27.972Z,100791.66
2022-12-01T10:15:56.647Z,100784.44
2022-12-01T10:18:30.727Z,100791.12
2022-12-01T10:21:24.354Z,100784.88
2022-12-01T10:24:29.106Z,100787.66
2022-12-01T10:26:59.668Z,100787.59
2022-12-01T10:29:32.951Z,100777.75
2022-12-01T10:32:12.534Z,100775.06
2022-12-01T10:34:42.779Z,100774.94
2022-12-01T10:37:26.835Z,100774.31
2022-12-01T10:39:57.552Z,100769.53
2022-12-01T10:42:45.018Z,100771.50
2022-12-01T10:45:28.298Z,100774.56
2022-12-01T10:48:15.879Z,100768.31
2022-12-01T10:50:47.900Z,100766.06
2022-12-01T10:53:27.144Z,100769.88
2022-12-01T10:56:18.194Z,100765.97
2022-12-01T10:58:57.583Z,100757.47
2022-12-01T11:01:35.623Z,100761.78
2022-12-01T11:04:45.637Z,100769.31
2022-12-01T11:07:42.834Z,100753.38
2022-12-01T11:10:24.155Z,100758.50
2022-12-01T11:13:20.571Z,100751.09
2022-12-01T11:15:57.797Z,100747.12
2022-12-01T11:18:35.133Z,100735.31
2022-12-01T11:21:26.827Z,100735.28
2022-12-01T11:23:57.458Z,100735.72
2022-12-01T11:26:28.227Z,100742.31
2022-12-01T11:29:03.951Z,100731.06
2022-12-01T11:31:49.044Z,100728.94
2022-12-01T11:34:38.419Z,100727.19
2022-12-01T11:37:10.338Z,100731.13
2022-12-01T11:39:40.597Z,100732.41
2022-12-01T11:42:38.566Z,100728.44
2022-12-01T11:45:24.731Z,100716.13
2022-12-01T11:48:15.877Z,100720.22
2022-12-01T11:50:45.183Z,100719.94
2022-12-01T11:53:29.166Z,100721.91
2022-12-01T11:56:18.317Z,100717.88
2022-12-01T11:58:51.399Z,100721.50
2022-12-01T12:01:28.063Z,100718.97
2022-12-01T12:04:26.464Z,100721.78
2022-12-01T12:07:06.371Z,100716.91
2022-12-01T12:10:24.089Z,100720.19
2022-12-01T12:13:25.321Z,100714.91
2022-12-01T12:15:59.113Z,100718.09
2022-12-01T12:18:43.647Z,100714.34
2022-12-01T12:21:24.926Z,100707.19
2022-12-01T12:24:39.083Z,100713.62
2022-12-01T12:27:09.835Z,100706.62
2022-12-01T12:29:55.699Z,100707.53
2022-12-01T12:32:48.508Z,100699.50
2022-12-01T12:35:53.367Z,100704.75
2022-12-01T12:38:54.315Z,100703.34
2022-12-01T12:41:36.550Z,100713.31
2022-12-01T12:44:06.958Z,100723.28
2022-12-01T12:46:56.252Z,100711.56
2022-12-01T12:49:49.033Z,100699.88
2022-12-01T12:52:24.428Z,100697.63
2022-12-01T12:54:57.830Z,100701.66
2022-12-01T12:57:36.034Z,100701.22
2022-12-01T13:00:08.518Z,100697.50
2022-12-01T13:02:47.505Z,100699.56
2022-12-01T13:05:36.190Z,100707.69
2022-12-01T13:08:09.579Z,100697.69
2022-12-01T13:10:58.987Z,100696.78
2022-12-01T13:13:34.681Z,100690.56
2022-12-01T13:16:04.510Z,100690.00
2022-12-01T13:18:40.362Z,100695.50
2022-12-01T13:21:08.594Z,100697.00
2022-12-01T13:23:39.661Z,100696.38
2022-12-01T13:26:10.576Z,100694.87
2022-12-01T13:28:44.912Z,100699.34
2022-12-01T13:31:17.175Z,100693.88
2022-12-01T13:34:06.132Z,100703.19
2022-12-01T13:36:50.190Z,100691.09
2022-12-01T13:39:35.664Z,100696.19
2022-12-01T13:42:09.055Z,100698.47
2022-12-01T13:44:43.032Z,100697.69
2022-12-01T13:47:13.335Z,100704.16
2022-12-01T13:49:45.403Z,100704.19
2022-12-01T13:52:22.224Z,100701.94
2022-12-01T13:55:08.172Z,100696.94
2022-12-01T13:57:58.319Z,100697.59
2022-12-01T14:00:26.076Z,100692.00
2022-12-01T14:03:19.505Z,100696.97
2022-12-01T14:05:56.405Z,100694.72
2022-12-01T14:08:48.039Z,100693.22
2022-12-01T14:11:23.504Z,100692.00
2022-12-01T14:14:07.473Z,100689.50
2022-12-01T14:16:54.785Z,100691.53
2022-12-01T14:19:47.285Z,100687.56
2022-12-01T14:22:42.003Z,100687.97
2022-12-01T14:25:24.218Z,100685.69
2022-12-01T14:28:01.385Z,100684.22
2022-12-01T14:30:40.946Z,100682.75
2022-12-01T14:33:46.025Z,100687.50
2022-12-01T14:36:32.041Z,100686.25
2022-12-01T14:38:59.496Z,100699.03
2022-12-01T14:41:32.827Z,100690.72
2022-12-01T14:44:12.432Z,100687.81
2022-12-01T14:46:45.947Z,100692.28
2022-12-01T14:49:23.961Z,100684.78
2022-12-01T14:51:57.815Z,100690.72
2022-12-01T14:54:34.857Z,100688.16
2022-12-01T14:57:07.555Z,100685.41
2022-12-01T14:59:38.128Z,100686.34
2022-12-01T15:02:09.274Z,100700.38
2022-12-01T15:05:16.758Z,100701.34
2022-12-01T15:07:47.969Z,100703.34
2022-12-01T15:10:34.553Z,100701.00
2022-12-01T15:13:28.022Z,100695.75
2022-12-01T15:16:02.644Z,100704.78
2022-12-01T15:18:34.920Z,100692.94
2022-12-01T15:21:09.693Z,100696.41
2022-12-01T15:23:38.182Z,100703.34
2022-12-01T15:26:07.861Z,100697.28
2022-12-01T15:28:37.128Z,100688.72
2022-12-01T15:31:12.429Z,100704.44
2022-12-01T15:33:48.777Z,100705.84
2022-12-01T15:36:16.490Z,100704.72
2022-12-01T15:38:47.160Z,100700.78
2022-12-01T15:41:29.510Z,100695.97
2022-12-01T15:44:03.763Z,100695.28
2022-12-01T15:46:34.401Z,100700.81
2022-12-01T15:49:30.148Z,100693.69
2022-12-01T15:52:13.486Z,100701.94
2022-12-01T15:54:41.146Z,100701.66
2022-12-01T15:57:09.104Z,100693.34
2022-12-01T15:59:46.721Z,100700.38
2022-12-01T16:02:36.717Z,100710.66
2022-12-01T16:05:27.702Z,100701.34
2022-12-01T16:10:43.277Z,100700.38
2022-12-01T16:13:42.121Z,100704.28
2022-12-01T16:16:32.539Z,100705.69
2022-12-01T16:19:14.195Z,100701.91
2022-12-01T16:21:54.251Z,100706.81
2022-12-01T16:24:24.404Z,100697.28
2022-12-01T16:27:05.838Z,100703.22
2022-12-01T16:29:49.472Z,100703.53
2022-12-01T16:32:24.241Z,100702.91
2022-12-01T16:34:54.415Z,100704.75
2022-12-01T16:37:24.576Z,100699.94
2022-12-01T16:39:52.116Z,100696.62
2022-12-01T16:42:23.077Z,100700.59
2022-12-01T16:44:52.731Z,100703.28
2022-12-01T16:47:24.451Z,100709.00
2022-12-01T16:49:54.482Z,100703.00
2022-12-01T16:52:44.971Z,100705.69
2022-12-01T16:55:40.996Z,100705.31
2022-12-01T16:58:08.599Z,100705.31
2022-12-01T17:00:36.662Z,100705.31
2022-12-01T17:03:05.410Z,100705.69
2022-12-01T17:05:33.513Z,100704.84
2022-12-01T17:08:08.723Z,100706.69
2022-12-01T17:10:36.406Z,100712.44
2022-12-01T17:13:03.985Z,100712.53
2022-12-01T17:15:35.091Z,100707.50
2022-12-01T17:18:05.330Z,100678.75
2022-12-01T17:20:32.928Z,100711.94
2022-12-01T17:23:02.179Z,100716.19
2022-12-01T17:25:32.190Z,100717.38
2022-12-01T17:28:02.918Z,100708.03
2022-12-01T17:30:30.481Z,100719.13
2022-12-01T17:32:59.268Z,100711.78
2022-12-01T17:35:26.813Z,100721.03
2022-12-01T17:37:54.471Z,100715.84
2022-12-01T17:40:22.046Z,100719.72
2022-12-01T17:42:51.128Z,100713.25
2022-12-01T17:45:19.825Z,100723.12
2022-12-01T17:47:47.643Z,100713.31
2022-12-01T17:50:15.724Z,100715.69
2022-12-01T17:52:43.374Z,100719.75
2022-12-01T17:55:11.028Z,100717.12
2022-12-01T17:57:38.699Z,100717.50
2022-12-01T18:00:07.432Z,100723.56
2022-12-01T18:02:35.151Z,100719.25
2022-12-01T18:05:05.189Z,100722.13
2022-12-01T18:07:32.844Z,100728.94
2022-12-01T18:10:00.535Z,100724.78
2022-12-01T18:12:30.613Z,100729.50
2022-12-01T18:15:00.686Z,100728.19
2022-12-01T18:17:30.517Z,100729.84
2022-12-01T18:20:00.772Z,100728.87
2022-12-01T18:22:31.903Z,100721.87
2022-12-01T18:24:59.462Z,100723.38
2022-12-01T18:27:27.024Z,100722.72
2022-12-01T18:29:54.655Z,100731.78
2022-12-01T18:32:22.205Z,100724.94
2022-12-01T18:34:50.215Z,100724.44
2022-12-01T18:37:20.276Z,100731.16
2022-12-01T18:39:48.046Z,100734.84
2022-12-01T18:42:18.265Z,100731.53
2022-12-01T18:44:45.800Z,100730.19
2022-12-01T18:47:13.328Z,100700.38
2022-12-01T18:49:40.922Z,100736.22
2022-12-01T18:52:08.476Z,100733.53
2022-12-01T18:54:38.610Z,100737.41
2022-12-01T18:57:06.260Z,100737.75
2022-12-01T18:59:36.230Z,100742.91
2022-12-01T19:02:05.413Z,100737.56
2022-12-01T19:04:33.025Z,100736.75
2022-12-01T19:07:03.182Z,100734.06
2022-12-01T19:09:30.747Z,100736.91
2022-12-01T19:12:00.230Z,100736.22
2022-12-01T19:14:29.598Z,100740.91
2022-12-01T19:16:57.427Z,100735.75
2022-12-01T19:19:27.421Z,100743.75
2022-12-01T19:21:57.094Z,100740.25
2022-12-01T19:24:29.423Z,100748.28
2022-12-01T19:26:56.949Z,100740.44
2022-12-01T19:29:26.952Z,100744.12
2022-12-01T19:31:54.790Z,100745.97
2022-12-01T19:34:22.579Z,100737.75
2022-12-01T19:36:53.674Z,100744.94
2022-12-01T19:39:23.845Z,100740.44
2022-12-01T19:41:51.444Z,100739.44
2022-12-01T19:44:19.069Z,100740.91
2022-12-01T19:46:49.172Z,100741.94
2022-12-01T19:49:19.179Z,100739.59
2022-12-01T19:51:46.904Z,100743.41
2022-12-01T19:54:20.565Z,100746.09
2022-12-01T19:56:48.981Z,100740.56
2022-12-01T19:59:16.598Z,100748.28
2022-12-01T20:01:45.945Z,100748.28
2022-12-01T20:04:13.697Z,100739.72
2022-12-01T20:06:43.535Z,100746.91
2022-12-01T20:09:11.100Z,100750.13
2022-12-01T20:11:38.669Z,100749.94
2022-12-01T20:14:07.596Z,100710.78
2022-12-01T20:16:37.979Z,100753.50
2022-12-01T20:19:06.585Z,100744.69
2022-12-01T20:21:39.276Z,100750.69
2022-12-01T20:24:08.583Z,100753.88
2022-12-01T20:26:40.185Z,100748.38
2022-12-01T20:29:27.053Z,100754.72
2022-12-01T20:31:56.386Z,100749.72
2022-12-01T20:34:28.536Z,100753.44
2022-12-01T20:36:56.400Z,100747.94
2022-12-01T20:39:24.693Z,100755.44
2022-12-01T20:41:54.540Z,100752.13
2022-12-01T20:44:22.068Z,100757.28
2022-12-01T20:46:49.620Z,100760.81
2022-12-01T20:49:18.851Z,100762.34
2022-12-01T20:51:49.555Z,100766.66
2022-12-01T20:54:33.975Z,100772.19
2022-12-01T20:57:04.272Z,100772.53
2022-12-01T20:59:31.845Z,100770.53
2022-12-01T21:01:59.461Z,100774.66
2022-12-01T21:04:29.734Z,100770.84
2022-12-01T21:06:58.924Z,100781.34
2022-12-01T21:09:27.414Z,100781.69
2022-12-01T21:12:17.186Z,100774.34
2022-12-01T21:15:17.874Z,100783.50
2022-12-01T21:17:53.907Z,100785.66
2022-12-01T21:20:42.953Z,100781.81
2022-12-01T21:23:18.404Z,100794.16
2022-12-01T21:25:47.961Z,100788.31
2022-12-01T21:28:19.758Z,100784.66
2022-12-01T21:30:48.753Z,100787.97
2022-12-01T21:33:28.606Z,100786.47
2022-12-01T21:36:04.080Z,100796.16
2022-12-01T21:38:32.797Z,100790.13
2022-12-01T21:41:05.649Z,100791.12
2022-12-01T21:43:38.046Z,100787.62
2022-12-01T21:46:14.928Z,100788.63
2022-12-01T21:48:46.445Z,100790.63
2022-12-01T21:51:24.868Z,100796.09
2022-12-01T21:53:56.672Z,100793.59
2022-12-01T21:56:32.584Z,100790.09
2022-12-01T21:59:07.767Z,100794.59
2022-12-01T22:01:35.441Z,100795.12
2022-12-01T22:04:11.980Z,100797.47
2022-12-01T22:06:42.095Z,100788.31
2022-12-01T22:09:30.497Z,100792.47
2022-12-01T22:12:16.292Z,100796.31
2022-12-01T22:14:43.850Z,100797.31
2022-12-01T22:17:11.326Z,100793.88
2022-12-01T22:19:46.804Z,100795.53
2022-12-01T22:22:15.591Z,100791.53
2022-12-01T22:24:54.533Z,100791.53
2022-12-01T22:27:28.278Z,100793.22
2022-12-01T22:30:07.652Z,100784.19
2022-12-01T22:32:37.943Z,100780.84
2022-12-01T22:35:23.584Z,100749.66
2022-12-01T22:38:01.793Z,100782.19
2022-12-01T22:40:37.635Z,100778.84
2022-12-01T22:43:17.119Z,100776.50
2022-12-01T22:45:46.107Z,100779.47
2022-12-01T22:48:29.656Z,100779.84
2022-12-01T22:51:15.976Z,100765.28
2022-12-01T22:53:47.426Z,100766.44
2022-12-01T22:56:42.145Z,100772.09
2022-12-01T22:59:16.879Z,100767.75
2022-12-01T23:01:49.067Z,100765.41
2022-12-01T23:04:31.297Z,100761.72
2022-12-01T23:07:00.401Z,100767.72
2022-12-01T23:09:41.028Z,100770.06
2022-12-01T23:12:23.844Z,100769.37
2022-12-01T23:14:55.638Z,100768.50
2022-12-01T23:17:25.270Z,100769.00
2022-12-01T23:19:59.216Z,100774.69
2022-12-01T23:22:27.760Z,100769.31
2022-12-01T23:24:57.819Z,100770.66
2022-12-01T23:27:27.858Z,100770.66
2022-12-01T23:29:55.488Z,100776.19
2022-12-01T23:32:23.029Z,100770.66
2022-12-01T23:34:52.699Z,100769.66
2022-12-01T23:37:38.548Z,100775.50
2022-12-01T23:40:19.099Z,100779.66
2022-12-01T23:42:46.777Z,100787.16
2022-12-01T23:45:31.065Z,100782.28
2022-12-01T23:48:06.818Z,100773.09
2022-12-01T23:50:38.452Z,100779.94
2022-12-01T23:53:23.252Z,100785.44
2022-12-01T23:55:51.179Z,100780.94
2022-12-01T23:58:18.997Z,100787.28
